Flight Track Log - Related Links

Times and Time Zones

All times are in EDT time to prevent confusion due to time zone crossing. See the QFA916 flight status page for this flight to view local times or setup timezone preferences in your user account.

Time Position Orientation Groundspeed Altitude Reporting Facility
EDT Latitude Longitude Course Direction KTS MPH feet Rate Location/Type
Wed 02:50:00 AM -31.9363 115.9662 193° South 110 127  Level FlightAware ADS-B
Wed 02:50:25 AM -31.9523 115.9615 194° South 150 173 300 1,360 Climbing FlightAware ADS-B
Wed 02:51:15 AM -31.9860 115.9510 195° South 181 208 1,700 1,745 Climbing FlightAware ADS-B
Wed 02:51:20 AM -31.9938 115.9489 193° South 198 228 1,900 3,600 Climbing FlightAware ADS-B
Wed 02:51:45 AM -32.0145 115.9359 208° Southwest 206 237 3,500 2,746 Climbing FlightAware ADS-B
Wed 02:52:19 AM -32.0228 115.8963 256° West 253 291 4,600 3,103 Climbing FlightAware ADS-B
Wed 02:52:43 AM -32.0183 115.8627 279° West 247 284 6,500 4,133 Climbing FlightAware ADS-B
Wed 02:53:04 AM -32.0145 115.8348 279° West 254 292 7,700 3,222 Climbing FlightAware ADS-B
Wed 02:53:37 AM -32.0084 115.7880 279° West 271 312 9,400 2,769 Climbing FlightAware ADS-B
Wed 02:54:09 AM -31.9979 115.7410 285° West 299 344 10,700 2,093 Climbing FlightAware ADS-B
Wed 02:54:20 AM -31.9873 115.7275 313° West 317 365 10,900 1,565 Climbing FlightAware ADS-B
Wed 02:54:32 AM -31.9712 115.7175 332° Northwest 337 388 11,300 2,857 Climbing FlightAware ADS-B
Wed 02:55:02 AM -31.9255 115.7169 332° Northwest 349 402 12,900 3,000 Climbing Aus ATC (RADAR)
Wed 02:55:04 AM -31.9220 115.7180 332° Northwest 354 407 12,900 2,667 Level FlightAware ADS-B
Wed 02:55:11 AM -31.9057 115.7195 North 357 411 13,300 2,480 Climbing FlightAware ADS-B
Wed 02:56:19 AM -31.7890 115.7340 North 402 463 16,000 2,500 Climbing FlightAware ADS-B
Wed 02:56:23 AM -31.7778 115.7348 North 401 461 16,300 3,474 Climbing FlightAware ADS-B
Wed 02:56:57 AM -31.7153 115.7421 North 392 451 18,200 2,957 Climbing FlightAware ADS-B
Wed 02:57:32 AM -31.6509 115.7495 North 406 467 19,700 2,492 Climbing FlightAware ADS-B
Wed 02:58:02 AM -31.5925 115.7561 North 407 468 20,900 2,381 Climbing FlightAware ADS-B
Wed 02:58:35 AM -31.5350 115.7630 North 418 481 22,200 2,550 Climbing FlightAware ADS-B
Wed 02:58:42 AM -31.5168 115.7649 North 418 481 22,600 2,681 Climbing FlightAware ADS-B
Wed 02:59:22 AM -31.4391 115.7738 North 418 481 24,300 2,400 Climbing FlightAware ADS-B
Wed 02:59:52 AM -31.3803 115.7803 North 420 483 25,400 2,100 Climbing FlightAware ADS-B
Wed 03:00:22 AM -31.3219 115.7869 North 422 486 26,400 1,900 Climbing FlightAware ADS-B
Wed 03:00:52 AM -31.2641 115.7936 North 420 483 27,300 1,800 Climbing FlightAware ADS-B
Wed 03:01:22 AM -31.2047 115.8004 North 421 484 28,200 1,935 Climbing FlightAware ADS-B
Wed 03:01:54 AM -31.1411 115.8077 North 418 481 29,300 1,742 Climbing FlightAware ADS-B
Wed 03:02:24 AM -31.0817 115.8144 North 421 484 30,000 1,524 Climbing FlightAware ADS-B
Wed 03:02:57 AM -31.0168 115.8218 North 420 483 30,900 1,524 Climbing FlightAware ADS-B
Wed 03:03:27 AM -30.9569 115.8288 North 422 486 31,600 1,333 Climbing FlightAware ADS-B
Wed 03:04:00 AM -30.8915 115.8361 North 423 487 32,300 1,333 Climbing FlightAware ADS-B
Wed 03:04:30 AM -30.8323 115.8428 North 433 498 33,000 1,143 Climbing FlightAware ADS-B
Wed 03:05:03 AM -30.7657 115.8502 North 436 502 33,500 952 Climbing FlightAware ADS-B
Wed 03:05:33 AM -30.7058 115.8569 North 438 504 34,000 1,125 Climbing FlightAware ADS-B
Wed 03:06:07 AM -30.6375 115.8647 North 437 503 34,700 1,500 Climbing FlightAware ADS-B
Wed 03:06:37 AM -30.5778 115.8717 North 420 483 35,600 2,095 Climbing FlightAware ADS-B
Wed 03:07:10 AM -30.5138 115.8794 North 408 470 36,900 1,714 Climbing FlightAware ADS-B
Wed 03:07:40 AM -30.4579 115.8857 North 405 466 37,400 750 Climbing FlightAware ADS-B
Wed 03:08:14 AM -30.3944 115.8925 North 408 470 37,700 563 Climbing FlightAware ADS-B
Wed 03:08:44 AM -30.3373 115.8988 North 402 463 38,000 476 Climbing FlightAware ADS-B
Wed 03:09:17 AM -30.2753 115.9055 North 406 467 38,200 381 Climbing FlightAware ADS-B
Wed 03:09:47 AM -30.2169 115.9119 North 419 482 38,400 476 Climbing FlightAware ADS-B
Wed 03:10:20 AM -30.1528 115.9193 North 423 487 38,700 476 Climbing FlightAware ADS-B
Wed 03:10:50 AM -30.0942 115.9258 North 417 480 38,900 281 Climbing FlightAware ADS-B
Wed 03:11:24 AM -30.0272 115.9333 North 419 482 39,000 94 Climbing FlightAware ADS-B
Wed 03:11:54 AM -29.9683 115.9398 North 419 482 39,000  Level FlightAware ADS-B
Wed 03:12:27 AM -29.9034 115.9470 North 419 482 39,000  Level FlightAware ADS-B
Wed 03:12:57 AM -29.8441 115.9536 North 420 483 39,000  Level FlightAware ADS-B
Wed 03:13:31 AM -29.7768 115.9610 North 420 483 39,000  Level FlightAware ADS-B
Wed 03:14:01 AM -29.7180 115.9675 North 420 483 39,000  Level FlightAware ADS-B
Wed 03:14:35 AM -29.6507 115.9749 North 420 483 39,000  Level FlightAware ADS-B
Wed 03:15:05 AM -29.5924 115.9814 North 421 484 39,000  Level FlightAware ADS-B
Wed 03:15:38 AM -29.5263 115.9886 North 420 483 39,000  Level FlightAware ADS-B
Wed 03:16:08 AM -29.4676 115.9951 North 422 486 39,000  Level FlightAware ADS-B
Wed 03:16:42 AM -29.4027 116.0026 North 408 470 39,000  Level FlightAware ADS-B
Wed 03:17:12 AM -29.3470 116.0085 North 405 466 39,000  Level FlightAware ADS-B
Wed 03:17:46 AM -29.2832 116.0153 North 404 465 39,000  Level FlightAware ADS-B
Wed 03:18:16 AM -29.2271 116.0214 North 405 466 39,000  Level FlightAware ADS-B
Wed 03:18:50 AM -29.1638 116.0273 North 405 466 39,000  Level FlightAware ADS-B
Wed 03:19:30 AM -29.0881 116.0317 North 401 461 39,000  Level FlightAware ADS-B
Wed 03:20:04 AM -29.0242 116.0360 North 402 463 39,000  Level FlightAware ADS-B
Wed 03:20:34 AM -28.9674 116.0401 North 401 461 39,000  Level FlightAware ADS-B
Wed 03:21:07 AM -28.9050 116.0445 North 407 468 39,000  Level FlightAware ADS-B
Wed 03:21:37 AM -28.8484 116.0484 North 400 460 39,000  Level FlightAware ADS-B
Wed 03:22:11 AM -28.7858 116.0527 North 406 467 39,000  Level FlightAware ADS-B
Wed 03:22:41 AM -28.7280 116.0567 North 406 467 39,000  Level FlightAware ADS-B
Wed 03:23:15 AM -28.6645 116.0611 North 406 467 39,000  Level FlightAware ADS-B
Wed 03:23:45 AM -28.6085 116.0648 North 406 467 39,000  Level FlightAware ADS-B
Wed 03:24:19 AM -28.5442 116.0692 North 406 467 39,000  Level FlightAware ADS-B
Wed 03:24:49 AM -28.4879 116.0732 North 403 464 39,000  Level FlightAware ADS-B
Wed 03:25:23 AM -28.4267 116.0776 North 386 444 39,000  Level FlightAware ADS-B
Wed 03:25:53 AM -28.3712 116.0812 North 386 444 39,000  Level FlightAware ADS-B
Wed 03:26:27 AM -28.3098 116.0852 North 385 443 39,000  Level FlightAware ADS-B
Wed 03:26:57 AM -28.2551 116.0889 North 384 442 39,000  Level FlightAware ADS-B
Wed 03:27:31 AM -28.1942 116.0931 North 391 450 39,000  Level FlightAware ADS-B
Wed 03:28:01 AM -28.1406 116.0967 North 389 448 39,000  Level FlightAware ADS-B
Wed 03:28:31 AM -28.0862 116.1004 North 386 444 39,000  Level FlightAware ADS-B
Wed 03:29:05 AM -28.0830 116.0990 338° Northwest 383 441 39,000  Level FlightAware ADS-B
Wed 03:29:41 AM -28.0290 116.1020 North 383 441 39,000  Level FlightAware ADS-B
Wed 03:30:15 AM -27.9050 116.1130 North 383 441 39,000 164 Level FlightAware ADS-B
Wed 03:30:54 AM -27.8352 116.1100 North 382 440 39,200  Climbing Aus ATC (RADAR)
Wed 03:30:58 AM -27.8380 116.1170 North 384 442 39,000  Descending FlightAware ADS-B
Wed 03:31:29 AM -27.7731 116.1130 North 383 441 39,200  Climbing Aus ATC (RADAR)
Wed 03:31:38 AM -27.7640 116.1220 North 386 444 39,000  Descending FlightAware ADS-B
Wed 03:32:09 AM -27.7009 116.1154 North 387 445 39,200  Climbing Aus ATC (RADAR)
Wed 03:32:12 AM -27.6970 116.1270 North 391 450 39,000  Descending FlightAware ADS-B
Wed 03:32:44 AM -27.6369 116.1173 North 392 451 39,200  Climbing Aus ATC (RADAR)
Wed 03:32:58 AM -27.6190 116.1320 North 393 452 39,000 -240 Descending FlightAware ADS-B
Wed 03:33:34 AM -27.5630 116.1350 North 393 452 39,000  Level FlightAware ADS-B
Wed 03:34:14 AM -27.4810 116.1410 North 395 455 39,000  Level FlightAware ADS-B
Wed 03:34:47 AM -27.4120 116.1460 North 396 456 39,000  Level FlightAware ADS-B
Wed 03:35:21 AM -27.3480 116.1500 North 397 457 39,000  Level FlightAware ADS-B
Wed 03:35:59 AM -27.2780 116.1550 North 397 457 39,000  Level FlightAware ADS-B
Wed 03:36:33 AM -27.2170 116.1590 North 397 457 39,000  Level FlightAware ADS-B
Wed 03:37:11 AM -27.1460 116.1640 North 396 456 39,000  Level FlightAware ADS-B
Wed 03:37:57 AM -27.0720 116.1680 North 396 456 39,000  Level FlightAware ADS-B
Wed 03:38:33 AM -27.0160 116.1720 North 396 456 39,000  Level FlightAware ADS-B
Wed 03:39:08 AM -26.9350 116.1780 North 392 451 39,000 158 Level FlightAware ADS-B
Wed 03:39:49 AM -26.8629 116.1877 North 389 448 39,200  Climbing Aus ATC (RADAR)
Wed 03:39:49 AM -26.8700 116.1820 North 392 451 39,000 -316 Descending FlightAware ADS-B
Wed 03:40:27 AM -26.8110 116.1850 North 392 451 39,000  Level FlightAware ADS-B
Wed 03:41:09 AM -26.7150 116.1920 North 390 449 39,000  Level FlightAware ADS-B
Wed 03:41:40 AM -26.6580 116.1960 North 391 450 39,000  Level FlightAware ADS-B
Wed 03:42:26 AM -26.5760 116.2010 North 392 451 39,000  Level FlightAware ADS-B
Wed 03:43:01 AM -26.5090 116.2060 North 393 452 39,000  Level FlightAware ADS-B
Wed 03:43:33 AM -26.4530 116.2100 North 393 452 39,000  Level FlightAware ADS-B
Wed 03:44:10 AM -26.3870 116.2140 North 394 453 39,000  Level FlightAware ADS-B
Wed 03:44:45 AM -26.3210 116.2180 North 396 456 39,000  Level FlightAware ADS-B
Wed 03:45:27 AM -26.2530 116.2220 North 396 456 39,000  Level FlightAware ADS-B
Wed 03:46:03 AM -26.1970 116.2260 North 396 456 39,000  Level FlightAware ADS-B
Wed 03:46:32 AM -26.1240 116.2310 North 399 459 39,000 387 Level FlightAware ADS-B
Wed 03:46:34 AM -26.1254 116.2343 North 396 456 39,200 333 Climbing Aus ATC (RADAR)
Wed 03:47:08 AM -26.0608 116.2391 North 397 457 39,200 -324 Level Aus ATC (RADAR)
Wed 03:47:11 AM -26.0630 116.2350 North 399 459 39,000 -308 Descending FlightAware ADS-B
Wed 03:47:47 AM -26.0070 116.2380 North 399 459 39,000  Level FlightAware ADS-B
Wed 03:48:23 AM -25.9300 116.2440 North 402 463 39,000  Level FlightAware ADS-B
Wed 03:48:58 AM -25.8530 116.2490 North 402 463 39,000  Level FlightAware ADS-B
Wed 03:49:33 AM -25.7980 116.2520 North 402 463 39,000  Level FlightAware ADS-B
Wed 03:50:09 AM -25.7410 116.2550 North 402 463 39,000  Level FlightAware ADS-B
Wed 03:50:45 AM -25.6840 116.2590 North 402 463 39,000 174 Level FlightAware ADS-B
Wed 03:51:18 AM -25.5957 116.2686 North 403 464 39,200  Climbing Aus ATC (RADAR)
Wed 03:51:21 AM -25.6280 116.2620 North 402 463 39,000 -308 Descending FlightAware ADS-B
Wed 03:51:57 AM -25.5710 116.2650 North 402 463 39,000  Level FlightAware ADS-B
Wed 03:52:32 AM -25.4550 116.2750 North 406 467 39,000  Level FlightAware ADS-B
Wed 03:53:06 AM -25.3980 116.2780 North 406 467 39,000  Level FlightAware ADS-B
Wed 03:53:42 AM -25.3400 116.2810 North 406 467 39,000  Level FlightAware ADS-B
Wed 03:54:19 AM -25.2500 116.2880 North 408 470 39,000  Level FlightAware ADS-B
Wed 03:54:58 AM -25.1880 116.2920 North 408 470 39,000  Level FlightAware ADS-B
Wed 03:55:42 AM -25.1040 116.2970 North 407 468 39,000  Level FlightAware ADS-B
Wed 03:56:18 AM -25.0470 116.3000 North 407 468 39,000  Level FlightAware ADS-B
Wed 03:56:54 AM -24.9890 116.3040 North 407 468 39,000  Level FlightAware ADS-B
Wed 03:57:30 AM -24.9310 116.3070 North 407 468 39,000 176 Level FlightAware ADS-B
Wed 03:58:02 AM -24.8285 116.3154 North 409 471 39,200  Climbing Aus ATC (RADAR)
Wed 03:58:06 AM -24.8740 116.3100 North 407 468 39,000  Descending FlightAware ADS-B
Wed 03:58:37 AM -24.7614 116.3201 North 409 471 39,200  Climbing Aus ATC (RADAR)
Wed 03:58:42 AM -24.8160 116.3140 North 407 468 39,000 -293 Descending FlightAware ADS-B
Wed 03:59:18 AM -24.7590 116.3170 North 407 468 39,000  Level FlightAware ADS-B
Wed 03:59:55 AM -24.7000 116.3200 North 407 468 39,000  Level FlightAware ADS-B
Wed 04:00:29 AM -24.6450 116.3230 North 407 468 39,000  Level FlightAware ADS-B
Wed 04:01:05 AM -24.5880 116.3270 North 407 468 39,000  Level FlightAware ADS-B
Wed 04:01:39 AM -24.4030 116.3420 North 427 491 39,000  Level FlightAware ADS-B
Wed 04:02:15 AM -24.3320 116.3470 North 428 493 39,000  Level FlightAware ADS-B
Wed 04:02:51 AM -24.2590 116.3510 North 428 493 39,000  Level FlightAware ADS-B
Wed 04:03:23 AM -24.1960 116.3550 North 427 491 39,000  Level FlightAware ADS-B
Wed 04:04:00 AM -24.1250 116.3600 North 426 490 39,000  Level FlightAware ADS-B
Wed 04:04:29 AM -24.0670 116.3640 North 426 490 39,000 197 Level FlightAware ADS-B
Wed 04:05:01 AM -24.0051 116.3677 North 423 487 39,200  Climbing Aus ATC (RADAR)
Wed 04:05:11 AM -23.9830 116.3690 North 426 490 39,000  Descending FlightAware ADS-B
Wed 04:05:41 AM -23.9257 116.3722 North 424 488 39,200  Climbing Aus ATC (RADAR)
Wed 04:05:43 AM -23.9210 116.3730 North 426 490 39,000 -300 Descending FlightAware ADS-B
Wed 04:06:21 AM -23.8460 116.3780 North 426 490 39,000 -88 Level FlightAware ADS-B
Wed 04:06:51 AM -23.7884 116.3800 North 416 479 38,900  Descending Aus ATC (RADAR)
Wed 04:06:54 AM -23.7900 116.3810 North 426 490 39,000 154 Climbing FlightAware ADS-B
Wed 04:07:30 AM -23.7300 116.3840 North 426 490 39,000  Level FlightAware ADS-B
Wed 04:08:01 AM -23.6480 116.3820 359° North 425 489 39,000 -98 Level FlightAware ADS-B
Wed 04:08:31 AM -23.5921 116.3832 359° North 418 481 38,900  Descending Aus ATC (RADAR)
Wed 04:08:39 AM -23.5850 116.3760 359° North 425 489 39,000 162 Climbing FlightAware ADS-B
Wed 04:09:08 AM -23.5190 116.3850 North 426 490 39,000  Level FlightAware ADS-B
Wed 04:09:45 AM -23.4570 116.3860 North 426 490 39,000 -83 Level FlightAware ADS-B
Wed 04:10:20 AM -23.3748 116.3877 North 421 484 38,900  Descending Aus ATC (RADAR)
Wed 04:10:22 AM -23.3950 116.3870 North 426 490 39,000  Climbing FlightAware ADS-B
Wed 04:10:56 AM -23.3051 116.3890 North 422 486 38,900  Descending Aus ATC (RADAR)
Wed 04:10:58 AM -23.3350 116.3890 North 426 490 39,000 143 Climbing FlightAware ADS-B
Wed 04:11:38 AM -23.2680 116.3900 North 426 490 39,000 -77 Level FlightAware ADS-B
Wed 04:12:16 AM -23.1465 116.3923 North 421 484 38,900  Descending Aus ATC (RADAR)
Wed 04:12:22 AM -23.1420 116.3930 North 427 491 39,000 143 Climbing FlightAware ADS-B
Wed 04:12:58 AM -23.0810 116.3940 North 427 491 39,000 -88 Level FlightAware ADS-B
Wed 04:13:30 AM -22.9992 116.3951 North 418 481 38,900  Descending Aus ATC (RADAR)
Wed 04:13:34 AM -23.0210 116.3950 North 427 491 39,000  Climbing FlightAware ADS-B
Wed 04:14:05 AM -22.9312 116.3963 North 414 476 38,900  Descending Aus ATC (RADAR)
Wed 04:14:10 AM -22.9610 116.3960 North 427 491 39,000 146 Climbing FlightAware ADS-B
Wed 04:14:46 AM -22.9000 116.3970 North 427 491 39,000  Level FlightAware ADS-B
Wed 04:15:20 AM -22.7910 116.4000 North 416 479 39,000 -94 Level FlightAware ADS-B
Wed 04:15:50 AM -22.7244 116.4009 North 418 481 38,900  Descending Aus ATC (RADAR)
Wed 04:15:58 AM -22.7290 116.4010 North 416 479 39,000 146 Climbing FlightAware ADS-B
Wed 04:16:31 AM -22.6440 116.4030 North 416 479 39,000  Level FlightAware ADS-B
Wed 04:17:10 AM -22.5800 116.4040 North 416 479 39,000 -69 Level FlightAware ADS-B
Wed 04:17:58 AM -22.4850 116.4060 North 417 480 38,900 -1,200 Descending FlightAware ADS-B
Wed 04:18:00 AM -22.4703 116.4055 North 410 472 38,000 -3,319 Descending Aus ATC (RADAR)
Wed 04:18:45 AM -22.3837 116.4075 North 404 465 36,300 -1,111 Descending Aus ATC (RADAR)
Wed 04:18:54 AM -22.3730 116.4090 North 416 479 37,000 933 Climbing FlightAware ADS-B
Wed 04:19:30 AM -22.3140 116.4100 North 416 479 37,000 -3,630 Level FlightAware ADS-B
Wed 04:20:15 AM -22.2092 116.4102 North 406 467 32,100 -4,615 Descending Aus ATC (RADAR)
Wed 04:20:22 AM -22.1990 116.4120 North 423 487 33,000 -923 Climbing FlightAware ADS-B
Wed 04:21:07 AM -22.1150 116.4140 North 417 480 31,300 -2,857 Descending FlightAware ADS-B
Wed 04:21:46 AM -22.0390 116.4150 North 405 466 29,000 -2,957 Descending FlightAware ADS-B
Wed 04:22:16 AM -21.9780 116.4160 North 406 467 27,900 -2,174 Descending FlightAware ADS-B
Wed 04:22:55 AM -21.9040 116.4180 North 401 461 26,500 -2,113 Descending FlightAware ADS-B
Wed 04:23:27 AM -21.8470 116.4190 North 390 449 25,400 -1,970 Descending FlightAware ADS-B
Wed 04:24:02 AM -21.7840 116.4210 North 390 449 24,300 -2,087 Descending FlightAware ADS-B
Wed 04:24:36 AM -21.7190 116.4220 North 372 428 23,000 -1,971 Descending FlightAware ADS-B
Wed 04:25:12 AM -21.6620 116.4230 North 373 429 22,000 -2,053 Descending FlightAware ADS-B
Wed 04:25:14 AM -21.6545 116.4214 North 364 419 21,700 -2,167 Descending Aus ATC (RADAR)
Wed 04:25:48 AM -21.5980 116.4240 North 355 409 20,700 -1,622 Descending FlightAware ADS-B
Wed 04:26:28 AM -21.5400 116.4250 North 354 407 19,700 -1,895 Descending FlightAware ADS-B
Wed 04:27:04 AM -21.4680 116.4270 North 371 427 18,300 -2,108 Descending FlightAware ADS-B
Wed 04:27:42 AM -21.4060 116.4300 North 359 413 17,100 -1,895 Descending FlightAware ADS-B
Wed 04:28:01 AM -21.3720 116.4400 15° North 359 413 16,500 -2,000 Descending FlightAware ADS-B
Wed 04:28:36 AM -21.3190 116.4660 25° Northeast 356 410 15,300 -1,938 Descending FlightAware ADS-B
Wed 04:29:06 AM -21.2780 116.4870 26° Northeast 357 411 14,400 -771 Descending FlightAware ADS-B
Wed 04:29:46 AM -21.2270 116.5130 25° Northeast 357 411 14,400 -2,000 Level FlightAware ADS-B
Wed 04:30:21 AM -21.1650 116.5460 26° Northeast 329 379 11,900 -3,000 Descending FlightAware ADS-B
Wed 04:30:56 AM -21.1170 116.5710 26° Northeast 325 374 10,900 -1,286 Descending FlightAware ADS-B
Wed 04:31:31 AM -21.0710 116.5940 25° Northeast 299 344 10,400 -771 Descending FlightAware ADS-B
Wed 04:32:06 AM -21.0290 116.6150 25° Northeast 284 327 10,000 -712 Descending FlightAware ADS-B
Wed 04:32:14 AM -21.0626 116.5968 27° Northeast 200 -750 Descending Aus ATC (Calculated)
Wed 04:32:30 AM -21.0010 116.6300 25° Northeast 272 313 9,700 18,000 Climbing FlightAware ADS-B
Wed 04:32:45 AM -20.9830 116.6390 25° Northeast 270 311 9,500 -1,371 Descending FlightAware ADS-B
Wed 04:33:05 AM -20.9610 116.6500 25° Northeast 272 313 8,900 -1,800 Descending FlightAware ADS-B
Wed 04:33:25 AM -20.9360 116.6620 24° Northeast 281 323 8,300 -1,692 Descending FlightAware ADS-B
Wed 04:33:44 AM -20.9140 116.6740 27° Northeast 283 326 7,800 -1,674 Descending FlightAware ADS-B
Wed 04:34:08 AM -20.8850 116.6880 24° Northeast 283 326 7,100 -1,636 Descending FlightAware ADS-B
Wed 04:34:28 AM -20.8620 116.7000 26° Northeast 283 326 6,600 -1,650 Descending FlightAware ADS-B
Wed 04:34:48 AM -20.8380 116.7120 25° Northeast 284 327 6,000 -1,538 Descending FlightAware ADS-B
Wed 04:35:07 AM -20.8150 116.7230 24° Northeast 284 327 5,600 -1,467 Descending FlightAware ADS-B
Wed 04:35:14 AM -20.7999 116.7292 30° Northeast -1,615 Descending Aus ATC (Calculated)
Wed 04:35:33 AM -20.7840 116.7390 26° Northeast 285 328 4,900 6,789 Climbing FlightAware ADS-B
Wed 04:35:52 AM -20.7610 116.7510 26° Northeast 288 331 4,300 -1,171 Descending FlightAware ADS-B
Wed 04:36:09 AM -20.7561 116.7513 30° Northeast -545 Descending Aus ATC (Calculated)
Wed 04:36:14 AM -20.7370 116.7630 25° Northeast 272 313 4,100 14,471 Climbing FlightAware ADS-B
Wed 04:36:26 AM -20.7210 116.7710 25° Northeast 265 305 4,100  Level FlightAware ADS-B
Wed 04:36:34 AM -20.7342 116.7623 27° Northeast  Descending Aus ATC (Calculated)
Wed 04:36:34 AM -20.7342 116.7623 27° Northeast 18,923 Level Aus ATC (Calculated)
Wed 04:36:47 AM -20.7000 116.7810 24° Northeast 251 289 4,100 7,688 Climbing FlightAware ADS-B
Wed 04:37:06 AM -20.6800 116.7920 27° Northeast 234 269 4,100 -140 Level FlightAware ADS-B
Wed 04:37:30 AM -20.6610 116.8020 27° Northeast 219 252 4,000 -545 Descending FlightAware ADS-B
Wed 04:37:50 AM -20.6440 116.8140 33° Northeast 206 237 3,700 -1,154 Descending FlightAware ADS-B
Wed 04:37:56 AM -20.6410 116.8200 62° Northeast 210 242 3,500 -1,125 Descending FlightAware ADS-B
Wed 04:38:06 AM -20.6380 116.8320 75° East 198 228 3,400 -857 Descending FlightAware ADS-B
Wed 04:38:31 AM -20.6360 116.8550 85° East 195 224 3,000 -480 Descending FlightAware ADS-B
Wed 04:38:56 AM -20.6340 116.8750 84° East 195 224 3,000 -842 Level FlightAware ADS-B
Wed 04:40:15 AM -20.7000 116.8680 186° South 1,600 -1,079 Descending FlightAware ADS-B
Wed 04:40:25 AM -20.7040 116.8610 239° Southwest 145 167 1,400 -900 Descending FlightAware ADS-B
Wed 04:40:35 AM -20.7050 116.8540 261° West 143 165 1,300 -600 Descending FlightAware ADS-B
Wed 04:40:55 AM -20.7060 116.8420 265° West 140 161 1,100 -686 Descending FlightAware ADS-B
Wed 04:41:10 AM -20.7070 116.8310 264° West 134 154 900 -732 Descending FlightAware ADS-B
Wed 04:41:36 AM -20.7090 116.8130 263° West 130 150 600 -732 Descending FlightAware ADS-B
Wed 04:41:51 AM -20.7100 116.8040 263° West 129 148 400 -706 Descending FlightAware ADS-B
Wed 04:42:10 AM -20.7110 116.7930 264° West 125 144 200 -632 Descending FlightAware ADS-B
Wed 04:42:30 AM -20.7130 116.7790 264° West 120 138 -600 Descending FlightAware ADS-B

Login

Don't have an account? Register now (free) for customized features, flight alerts, and more!